createdAt,value
2023-02-24T00:02:02.187Z,20.35
2023-02-24T00:04:31.774Z,24.55
2023-02-24T00:06:59.785Z,24.70
2023-02-24T00:09:28.300Z,32.00
2023-02-24T00:11:57.927Z,24.48
2023-02-24T00:14:27.160Z,24.20
2023-02-24T00:16:54.084Z,23.98
2023-02-24T00:19:23.606Z,33.63
2023-02-24T00:21:51.584Z,33.80
2023-02-24T00:24:18.665Z,30.63
2023-02-24T00:26:48.374Z,32.33
2023-02-24T00:29:15.095Z,26.60
2023-02-24T00:31:42.945Z,36.53
2023-02-24T00:34:12.626Z,22.80
2023-02-24T00:36:39.518Z,21.73
2023-02-24T00:39:11.060Z,23.70
2023-02-24T00:41:43.778Z,26.58
2023-02-24T00:44:13.087Z,22.65
2023-02-24T00:46:45.040Z,23.60
2023-02-24T00:49:17.266Z,28.45
2023-02-24T00:51:49.672Z,36.83
2023-02-24T00:54:17.189Z,22.00
2023-02-24T00:56:45.530Z,24.55
2023-02-24T00:59:13.844Z,25.25
2023-02-24T01:01:40.993Z,33.00
2023-02-24T01:04:11.656Z,24.75
2023-02-24T01:06:41.738Z,18.33
2023-02-24T01:09:11.020Z,27.08
2023-02-24T01:11:56.897Z,25.23
2023-02-24T01:14:26.962Z,29.77
2023-02-24T01:16:54.168Z,26.23
2023-02-24T01:19:23.372Z,26.35
2023-02-24T01:21:55.082Z,17.38
2023-02-24T01:24:23.822Z,24.75
2023-02-24T01:26:50.905Z,19.13
2023-02-24T01:29:17.662Z,24.88
2023-02-24T01:31:44.571Z,36.38
2023-02-24T01:34:13.369Z,26.52
2023-02-24T01:36:43.285Z,23.88
2023-02-24T01:39:11.499Z,23.25
2023-02-24T01:41:41.176Z,30.73
2023-02-24T01:44:32.526Z,20.30
2023-02-24T01:47:03.657Z,19.23
2023-02-24T01:49:34.804Z,24.10
2023-02-24T01:52:12.177Z,25.05
2023-02-24T01:54:43.262Z,16.88
2023-02-24T01:57:11.172Z,17.52
2023-02-24T01:59:38.851Z,30.77
2023-02-24T02:02:07.568Z,19.63
2023-02-24T02:04:40.262Z,22.95
2023-02-24T02:07:10.154Z,26.20
2023-02-24T02:09:38.912Z,17.30
2023-02-24T02:12:06.746Z,14.15
2023-02-24T02:14:36.736Z,24.38
2023-02-24T02:17:30.250Z,13.32
2023-02-24T02:20:31.200Z,21.05
2023-02-24T02:23:19.640Z,11.93
2023-02-24T02:26:00.929Z,14.25
2023-02-24T02:29:06.364Z,16.08
2023-02-24T02:31:58.062Z,16.90
2023-02-24T02:34:28.243Z,26.98
2023-02-24T02:37:12.102Z,22.05
2023-02-24T02:39:49.687Z,28.38
2023-02-24T02:42:30.358Z,26.20
2023-02-24T02:45:10.156Z,19.45
2023-02-24T02:47:43.317Z,22.02
2023-02-24T02:50:18.617Z,16.90
2023-02-24T02:52:58.260Z,16.90
2023-02-24T02:55:40.574Z,24.80
2023-02-24T02:58:12.117Z,22.08
2023-02-24T03:00:43.488Z,20.33
2023-02-24T03:03:13.036Z,17.30
2023-02-24T03:05:46.893Z,18.08
2023-02-24T03:08:16.778Z,24.55
2023-02-24T03:10:44.816Z,23.85
2023-02-24T03:13:13.317Z,17.70
2023-02-24T03:15:42.504Z,22.42
2023-02-24T03:18:15.038Z,14.98
2023-02-24T03:20:52.082Z,25.13
2023-02-24T03:23:25.215Z,20.50
2023-02-24T03:25:58.571Z,19.05
2023-02-24T03:28:37.410Z,22.17
2023-02-24T03:31:18.175Z,18.33
2023-02-24T03:33:53.054Z,19.67
2023-02-24T03:36:19.953Z,17.65
2023-02-24T03:38:50.337Z,16.70
2023-02-24T03:41:18.648Z,26.63
2023-02-24T03:43:47.883Z,13.77
2023-02-24T03:46:17.173Z,14.32
2023-02-24T03:48:53.109Z,21.33
2023-02-24T03:51:21.487Z,19.75
2023-02-24T03:54:06.957Z,20.77
2023-02-24T03:57:07.501Z,17.05
2023-02-24T04:00:26.486Z,19.58
2023-02-24T04:03:18.402Z,13.20
2023-02-24T04:06:11.612Z,17.35
2023-02-24T04:08:45.162Z,13.75
2023-02-24T04:11:41.192Z,13.00
2023-02-24T04:14:18.888Z,22.58
2023-02-24T04:16:57.031Z,21.25
2023-02-24T04:19:27.548Z,19.63
2023-02-24T04:21:55.096Z,19.90
2023-02-24T04:24:29.351Z,16.95
2023-02-24T04:26:59.085Z,12.00
2023-02-24T04:29:29.103Z,16.75
2023-02-24T04:32:03.477Z,13.35
2023-02-24T04:34:32.589Z,19.98
2023-02-24T04:37:02.383Z,13.77
2023-02-24T04:39:31.056Z,19.88
2023-02-24T04:42:01.599Z,19.70
2023-02-24T04:44:29.207Z,16.02
2023-02-24T04:46:56.517Z,28.50
2023-02-24T04:49:23.196Z,12.60
2023-02-24T04:51:51.526Z,23.55
2023-02-24T04:54:20.345Z,14.02
2023-02-24T04:56:48.569Z,15.15
2023-02-24T04:59:15.381Z,25.58
2023-02-24T05:01:44.049Z,17.02
2023-02-24T05:04:12.873Z,14.90
2023-02-24T05:06:44.406Z,21.65
2023-02-24T05:09:16.927Z,17.98
2023-02-24T05:11:52.546Z,13.70
2023-02-24T05:14:24.919Z,26.52
2023-02-24T05:16:51.496Z,19.30
2023-02-24T05:19:38.708Z,21.05
2023-02-24T05:22:07.139Z,14.20
2023-02-24T05:24:34.683Z,13.93
2023-02-24T05:27:03.676Z,9.00
2023-02-24T05:29:32.849Z,24.33
2023-02-24T05:32:00.103Z,15.45
2023-02-24T05:34:28.150Z,20.45
2023-02-24T05:36:54.749Z,16.27
2023-02-24T05:39:21.677Z,23.92
2023-02-24T05:41:49.619Z,19.85
2023-02-24T05:44:22.547Z,24.13
2023-02-24T05:46:53.335Z,29.50
2023-02-24T05:49:27.363Z,21.27
2023-02-24T05:52:00.813Z,22.42
2023-02-24T05:54:33.569Z,17.50
2023-02-24T05:57:02.525Z,8.25
2023-02-24T05:59:33.006Z,14.70
2023-02-24T06:02:07.293Z,14.95
2023-02-24T06:04:40.982Z,19.08
2023-02-24T06:07:19.629Z,12.02
2023-02-24T06:09:57.803Z,8.88
2023-02-24T06:12:26.699Z,15.00
2023-02-24T06:14:53.475Z,11.35
2023-02-24T06:17:21.294Z,18.98
2023-02-24T06:19:50.856Z,12.18
2023-02-24T06:22:19.393Z,8.23
2023-02-24T06:24:48.726Z,13.50
2023-02-24T06:27:21.471Z,16.08
2023-02-24T06:29:50.466Z,13.77
2023-02-24T06:32:18.646Z,9.73
2023-02-24T06:34:45.956Z,10.25
2023-02-24T06:37:14.245Z,11.15
2023-02-24T06:39:41.284Z,15.88
2023-02-24T06:42:08.840Z,14.15
2023-02-24T06:44:38.370Z,12.07
2023-02-24T06:47:07.340Z,24.25
2023-02-24T06:49:34.461Z,12.20
2023-02-24T06:52:01.132Z,9.73
2023-02-24T06:54:30.615Z,14.60
2023-02-24T06:56:59.032Z,14.10
2023-02-24T06:59:29.407Z,12.75
2023-02-24T07:01:56.684Z,15.27
2023-02-24T07:04:28.164Z,12.73
2023-02-24T07:06:57.753Z,15.40
2023-02-24T07:09:26.759Z,12.10
2023-02-24T07:11:55.993Z,14.77
2023-02-24T07:14:27.630Z,12.82
2023-02-24T07:16:55.092Z,11.93
2023-02-24T07:19:30.318Z,10.80
2023-02-24T07:22:02.157Z,13.32
2023-02-24T07:24:36.460Z,13.88
2023-02-24T07:27:05.928Z,15.75
2023-02-24T07:29:33.440Z,12.13
2023-02-24T07:32:03.433Z,19.52
2023-02-24T07:34:30.814Z,11.48
2023-02-24T07:36:58.497Z,13.60
2023-02-24T07:39:25.685Z,9.98
2023-02-24T07:41:55.183Z,12.82
2023-02-24T07:44:25.553Z,15.70
2023-02-24T07:46:52.486Z,8.30
2023-02-24T07:49:22.606Z,13.60
2023-02-24T07:51:52.905Z,12.60
2023-02-24T07:54:21.307Z,9.98
2023-02-24T07:56:56.417Z,16.70
2023-02-24T07:59:29.001Z,11.18
2023-02-24T08:01:56.344Z,11.45
2023-02-24T08:04:33.209Z,8.98
2023-02-24T08:07:03.075Z,15.00
2023-02-24T08:09:46.385Z,17.58
2023-02-24T08:12:18.623Z,8.18
2023-02-24T08:14:50.742Z,9.60
2023-02-24T08:17:23.634Z,16.92
2023-02-24T08:20:08.476Z,8.32
2023-02-24T08:22:37.304Z,12.40
2023-02-24T08:25:07.246Z,11.82
2023-02-24T08:27:42.148Z,11.57
2023-02-24T08:30:21.150Z,24.08
2023-02-24T08:32:52.581Z,11.43
2023-02-24T08:35:21.786Z,16.83
2023-02-24T08:37:52.013Z,13.00
2023-02-24T08:40:33.166Z,12.57
2023-02-24T08:43:17.142Z,12.45
2023-02-24T08:46:25.621Z,16.67
2023-02-24T08:48:57.735Z,9.45
2023-02-24T08:51:35.074Z,13.23
2023-02-24T08:54:15.603Z,14.63
2023-02-24T08:56:47.631Z,8.20
2023-02-24T08:59:35.366Z,11.55
2023-02-24T09:02:20.676Z,8.52
2023-02-24T09:04:55.433Z,12.35
2023-02-24T09:07:37.213Z,9.90
2023-02-24T09:10:18.819Z,16.15
2023-02-24T09:12:46.709Z,15.35
2023-02-24T09:15:15.432Z,16.30
2023-02-24T09:17:46.332Z,19.33
2023-02-24T09:20:35.007Z,9.93
2023-02-24T09:23:02.239Z,22.42
2023-02-24T09:25:41.574Z,13.68
2023-02-24T09:28:17.750Z,7.93
2023-02-24T09:30:53.290Z,9.98
2023-02-24T09:33:21.291Z,18.90
2023-02-24T09:36:12.916Z,11.82
2023-02-24T09:39:00.505Z,13.48
2023-02-24T09:41:58.641Z,1.42
2023-02-24T09:44:38.341Z,8.90
2023-02-24T09:47:18.212Z,8.18
2023-02-24T09:49:48.541Z,8.48
2023-02-24T09:52:17.732Z,5.95
2023-02-24T09:55:13.594Z,8.88
2023-02-24T09:58:42.896Z,7.57
2023-02-24T10:01:33.358Z,18.85
2023-02-24T10:04:20.877Z,2.10
2023-02-24T10:07:11.411Z,7.95
2023-02-24T10:09:49.859Z,10.13
2023-02-24T10:12:19.000Z,10.90
2023-02-24T10:15:19.069Z,17.45
2023-02-24T10:17:58.576Z,16.08
2023-02-24T10:20:39.676Z,9.77
2023-02-24T10:23:16.090Z,11.10
2023-02-24T10:25:53.800Z,5.53
2023-02-24T10:28:36.125Z,12.95
2023-02-24T10:31:48.360Z,16.85
2023-02-24T10:34:20.818Z,8.10
2023-02-24T10:36:50.361Z,6.00
2023-02-24T10:39:25.747Z,8.23
2023-02-24T10:41:57.998Z,16.38
2023-02-24T10:45:01.428Z,11.18
2023-02-24T10:47:32.802Z,11.15
2023-02-24T10:50:01.442Z,14.05
2023-02-24T10:52:52.824Z,15.40
2023-02-24T10:55:29.039Z,11.05
2023-02-24T10:58:06.199Z,15.95
2023-02-24T11:01:03.171Z,2.15
2023-02-24T11:03:36.370Z,9.57
2023-02-24T11:06:03.702Z,9.93
2023-02-24T11:08:47.920Z,9.38
2023-02-24T11:11:25.597Z,10.32
2023-02-24T11:14:11.961Z,18.42
2023-02-24T11:17:02.301Z,11.85
2023-02-24T11:19:31.091Z,10.50
2023-02-24T11:21:58.296Z,19.65
2023-02-24T11:24:25.719Z,11.07
2023-02-24T11:26:52.513Z,13.13
2023-02-24T11:29:25.225Z,17.33
2023-02-24T11:31:59.104Z,14.95
2023-02-24T11:35:05.771Z,18.67
2023-02-24T11:37:46.086Z,8.98
2023-02-24T11:40:25.741Z,15.85
2023-02-24T11:43:14.485Z,17.92
2023-02-24T11:45:51.294Z,13.45
2023-02-24T11:48:23.895Z,11.13
2023-02-24T11:51:10.228Z,14.75
2023-02-24T11:54:05.480Z,7.07
2023-02-24T11:56:40.084Z,8.23
2023-02-24T11:59:38.879Z,18.23
2023-02-24T12:02:43.593Z,10.32
2023-02-24T12:05:16.937Z,10.80
2023-02-24T12:07:55.215Z,10.57
2023-02-24T12:10:36.364Z,13.43
2023-02-24T12:13:16.428Z,11.23
2023-02-24T12:15:56.172Z,7.72
2023-02-24T12:18:45.971Z,20.02
2023-02-24T12:21:23.447Z,12.80
2023-02-24T12:23:53.599Z,11.93
2023-02-24T12:26:42.565Z,15.30
2023-02-24T12:29:54.628Z,13.70
2023-02-24T12:32:30.445Z,10.43
2023-02-24T12:35:19.712Z,18.38
2023-02-24T12:38:17.347Z,17.40
2023-02-24T12:40:51.265Z,11.95
2023-02-24T12:43:23.733Z,13.48
2023-02-24T12:46:09.423Z,14.60
2023-02-24T12:48:54.764Z,18.95
2023-02-24T12:51:24.584Z,11.70
2023-02-24T12:54:33.272Z,18.17
2023-02-24T12:57:12.037Z,16.48
2023-02-24T12:59:40.178Z,15.93
2023-02-24T13:02:34.887Z,18.45
2023-02-24T13:05:06.434Z,3.75
2023-02-24T13:07:39.457Z,17.30
2023-02-24T13:10:16.690Z,13.63
2023-02-24T13:13:00.354Z,10.02
2023-02-24T13:15:31.295Z,17.95
2023-02-24T13:17:58.601Z,13.25
2023-02-24T13:20:36.984Z,20.08
2023-02-24T13:23:20.087Z,9.60
2023-02-24T13:25:54.894Z,21.10
2023-02-24T13:28:25.438Z,13.00
2023-02-24T13:31:06.803Z,4.10
2023-02-24T13:33:43.873Z,16.23
2023-02-24T13:36:20.586Z,15.25
2023-02-24T13:38:48.949Z,14.38
2023-02-24T13:41:22.130Z,13.52
2023-02-24T13:44:27.617Z,2.75
2023-02-24T13:47:12.898Z,14.98
2023-02-24T13:49:55.037Z,14.15
2023-02-24T13:52:27.562Z,8.15
2023-02-24T13:55:12.134Z,22.17
2023-02-24T13:57:47.736Z,17.30
2023-02-24T14:00:26.491Z,15.75
2023-02-24T14:02:53.566Z,23.65
2023-02-24T14:05:27.417Z,19.63
2023-02-24T14:07:54.738Z,20.08
2023-02-24T14:10:25.197Z,20.75
2023-02-24T14:13:29.863Z,23.95
2023-02-24T14:15:58.510Z,24.60
2023-02-24T14:18:27.643Z,35.67
2023-02-24T14:20:56.076Z,27.90
2023-02-24T14:23:25.693Z,27.45
2023-02-24T14:26:00.154Z,31.20
2023-02-24T14:28:32.151Z,24.85
2023-02-24T14:31:00.783Z,28.40
2023-02-24T14:33:36.028Z,28.33
2023-02-24T14:36:07.835Z,30.83
2023-02-24T14:38:40.008Z,31.58
2023-02-24T14:41:25.069Z,26.75
2023-02-24T14:43:52.494Z,31.45
2023-02-24T14:46:19.744Z,32.97
2023-02-24T14:48:52.768Z,34.78
2023-02-24T14:51:31.497Z,38.63
2023-02-24T14:54:02.247Z,27.65
2023-02-24T14:56:31.621Z,35.03
2023-02-24T14:59:03.007Z,37.05
2023-02-24T15:01:45.447Z,31.42
2023-02-24T15:04:15.870Z,39.88
2023-02-24T15:06:43.917Z,37.13
2023-02-24T15:09:17.225Z,37.97
2023-02-24T15:11:43.965Z,35.35
2023-02-24T15:14:21.805Z,34.80
2023-02-24T15:17:00.855Z,36.05
2023-02-24T15:19:46.449Z,32.17
2023-02-24T15:22:31.374Z,31.50
2023-02-24T15:25:22.405Z,45.65
2023-02-24T15:27:56.503Z,43.97
2023-02-24T15:30:27.727Z,39.67
2023-02-24T15:33:07.311Z,41.78
2023-02-24T15:35:35.839Z,28.42
2023-02-24T15:38:02.561Z,41.33
2023-02-24T15:40:29.995Z,44.22
2023-02-24T15:43:07.943Z,45.50
2023-02-24T15:45:37.853Z,41.50
2023-02-24T15:48:19.888Z,43.10
2023-02-24T15:50:46.735Z,41.58
2023-02-24T15:53:13.554Z,36.55
2023-02-24T15:55:43.829Z,39.03
2023-02-24T15:58:18.403Z,35.63
2023-02-24T16:00:45.611Z,40.47
2023-02-24T16:03:12.653Z,45.88
2023-02-24T16:05:39.368Z,38.75
2023-02-24T16:08:10.195Z,45.30
2023-02-24T16:10:36.913Z,47.00
2023-02-24T16:13:03.595Z,53.58
2023-02-24T16:15:33.928Z,50.97
2023-02-24T16:18:02.377Z,44.08
2023-02-24T16:20:35.706Z,46.47
2023-02-24T16:23:04.426Z,38.60
2023-02-24T16:25:41.772Z,26.02
2023-02-24T16:28:14.069Z,17.48
2023-02-24T16:30:41.639Z,10.57
2023-02-24T16:33:15.681Z,11.85
2023-02-24T16:35:44.174Z,9.32
2023-02-24T16:38:15.650Z,9.13
2023-02-24T16:40:44.938Z,9.23
2023-02-24T16:43:13.336Z,7.53
2023-02-24T16:45:41.325Z,10.52
2023-02-24T16:48:35.799Z,8.88
2023-02-24T16:51:03.791Z,10.10
2023-02-24T16:53:31.135Z,10.98
2023-02-24T16:55:58.065Z,5.95
2023-02-24T16:58:24.837Z,7.63
2023-02-24T17:00:53.646Z,5.78
2023-02-24T17:03:23.065Z,5.07
2023-02-24T17:05:50.199Z,7.13
2023-02-24T17:08:17.443Z,4.40
2023-02-24T17:10:44.939Z,5.18
2023-02-24T17:13:13.318Z,11.82
2023-02-24T17:15:40.147Z,13.23
2023-02-24T17:18:07.204Z,8.32
2023-02-24T17:20:35.177Z,6.88
2023-02-24T17:23:02.266Z,6.68
2023-02-24T17:25:29.970Z,7.25
2023-02-24T17:27:57.065Z,11.27
2023-02-24T17:30:33.203Z,8.85
2023-02-24T17:33:00.434Z,10.00
2023-02-24T17:35:27.616Z,8.98
2023-02-24T17:37:54.325Z,12.18
2023-02-24T17:40:21.164Z,3.65
2023-02-24T17:42:47.827Z,7.45
2023-02-24T17:45:15.185Z,4.70
2023-02-24T17:47:42.244Z,7.68
2023-02-24T17:50:10.719Z,14.75
2023-02-24T17:52:37.527Z,18.90
2023-02-24T17:55:05.526Z,12.27
2023-02-24T17:57:34.235Z,9.77
2023-02-24T18:00:00.928Z,9.93
2023-02-24T18:02:27.756Z,8.23
2023-02-24T18:04:54.451Z,11.02
2023-02-24T18:07:21.311Z,5.22
2023-02-24T18:09:48.156Z,12.18
2023-02-24T18:12:14.822Z,7.47
2023-02-24T18:14:41.616Z,12.00
2023-02-24T18:17:08.271Z,9.38
2023-02-24T18:19:34.874Z,6.85
2023-02-24T18:22:01.581Z,8.40
2023-02-24T18:24:28.411Z,7.22
2023-02-24T18:26:55.137Z,7.38
2023-02-24T18:29:21.739Z,3.67
2023-02-24T18:31:48.817Z,3.72
2023-02-24T18:34:15.584Z,7.10
2023-02-24T18:36:42.271Z,3.03
2023-02-24T18:39:09.866Z,4.78
2023-02-24T18:41:36.440Z,2.85
2023-02-24T18:44:03.255Z,7.18
2023-02-24T18:46:29.889Z,7.82
2023-02-24T18:49:00.333Z,4.65
2023-02-24T18:51:28.893Z,7.80
2023-02-24T18:53:58.193Z,3.85
2023-02-24T18:56:26.281Z,7.85
2023-02-24T18:58:55.386Z,3.15
2023-02-24T19:01:24.062Z,5.57
2023-02-24T19:03:52.120Z,2.35
2023-02-24T19:06:20.717Z,4.55
2023-02-24T19:08:50.224Z,7.47
2023-02-24T19:11:19.089Z,5.55
2023-02-24T19:13:49.431Z,10.05
2023-02-24T19:16:17.828Z,8.75
2023-02-24T19:18:45.259Z,7.63
2023-02-24T19:21:11.901Z,7.05
2023-02-24T19:23:38.601Z,3.63
2023-02-24T19:26:07.566Z,7.03
2023-02-24T19:28:34.344Z,5.07
2023-02-24T19:31:01.579Z,6.28
2023-02-24T19:33:28.310Z,9.77
2023-02-24T19:35:59.514Z,4.00
2023-02-24T19:38:26.517Z,9.98
2023-02-24T19:40:53.111Z,6.57
2023-02-24T19:43:19.734Z,6.18
2023-02-24T19:45:46.413Z,6.47
2023-02-24T19:48:13.108Z,6.78
2023-02-24T19:50:41.241Z,7.63
2023-02-24T19:53:08.234Z,5.97
2023-02-24T19:55:35.192Z,10.68
2023-02-24T19:58:02.027Z,15.90
2023-02-24T20:00:28.812Z,5.35
2023-02-24T20:02:55.394Z,6.53
2023-02-24T20:05:22.462Z,14.27
2023-02-24T20:07:49.140Z,8.32
2023-02-24T20:10:17.085Z,8.52
2023-02-24T20:12:44.833Z,7.38
2023-02-24T20:15:11.843Z,11.55
2023-02-24T20:17:38.497Z,14.20
2023-02-24T20:20:05.794Z,6.07
2023-02-24T20:22:32.458Z,6.63
2023-02-24T20:24:59.736Z,13.98
2023-02-24T20:27:26.440Z,17.20
2023-02-24T20:29:55.973Z,10.93
2023-02-24T20:32:23.379Z,6.32
2023-02-24T20:34:50.531Z,13.40
2023-02-24T20:37:17.317Z,10.55
2023-02-24T20:39:43.974Z,7.40
2023-02-24T20:42:12.123Z,13.27
2023-02-24T20:44:38.861Z,6.68
2023-02-24T20:47:05.501Z,22.52
2023-02-24T20:49:32.875Z,8.55
2023-02-24T20:51:59.582Z,12.50
2023-02-24T20:54:26.537Z,10.68
2023-02-24T20:56:53.360Z,14.30
2023-02-24T20:59:21.978Z,13.68
2023-02-24T21:01:49.143Z,24.10
2023-02-24T21:04:17.778Z,20.50
2023-02-24T21:06:44.446Z,17.30
2023-02-24T21:09:13.921Z,17.30
2023-02-24T21:11:40.522Z,15.80
2023-02-24T21:14:07.277Z,21.55
2023-02-24T21:16:36.823Z,16.52
2023-02-24T21:19:03.563Z,15.55
2023-02-24T21:21:30.222Z,21.02
2023-02-24T21:23:56.969Z,17.13
2023-02-24T21:26:29.026Z,14.25
2023-02-24T21:28:57.890Z,16.08
2023-02-24T21:31:25.353Z,14.75
2023-02-24T21:33:53.024Z,14.18
2023-02-24T21:36:21.564Z,12.38
2023-02-24T21:38:48.952Z,20.13
2023-02-24T21:41:16.035Z,11.10
2023-02-24T21:43:44.088Z,10.85
2023-02-24T21:46:11.896Z,14.27
2023-02-24T21:48:38.906Z,15.20
2023-02-24T21:51:09.442Z,6.18
2023-02-24T21:53:39.535Z,20.60
2023-02-24T21:56:17.879Z,14.20
2023-02-24T21:58:46.963Z,20.50
2023-02-24T22:01:25.803Z,24.08
2023-02-24T22:03:57.215Z,19.92
2023-02-24T22:06:26.149Z,18.33
2023-02-24T22:08:54.347Z,18.67
2023-02-24T22:11:21.653Z,6.47
2023-02-24T22:13:48.841Z,18.77
2023-02-24T22:16:23.931Z,10.95
2023-02-24T22:18:52.775Z,18.35
2023-02-24T22:21:24.470Z,12.85
2023-02-24T22:23:53.096Z,15.73
2023-02-24T22:26:22.832Z,16.00
2023-02-24T22:28:49.824Z,15.60
2023-02-24T22:31:19.831Z,12.82
2023-02-24T22:33:46.726Z,15.18
2023-02-24T22:36:17.108Z,16.10
2023-02-24T22:38:45.558Z,15.68
2023-02-24T22:41:20.864Z,18.13
2023-02-24T22:43:47.870Z,19.85
2023-02-24T22:46:17.133Z,12.23
2023-02-24T22:48:44.143Z,17.35
2023-02-24T22:51:13.048Z,15.23
2023-02-24T22:53:41.922Z,20.27
2023-02-24T22:56:11.056Z,8.27
2023-02-24T22:58:37.856Z,10.88
2023-02-24T23:01:12.956Z,10.15
2023-02-24T23:03:40.192Z,12.65
2023-02-24T23:06:14.309Z,19.67
2023-02-24T23:08:42.565Z,15.65
2023-02-24T23:11:13.318Z,6.82
2023-02-24T23:13:41.055Z,15.25
2023-02-24T23:16:11.209Z,9.23
2023-02-24T23:18:38.231Z,19.77
2023-02-24T23:21:08.031Z,22.45
2023-02-24T23:23:35.011Z,15.32
2023-02-24T23:26:01.734Z,7.88
2023-02-24T23:28:28.813Z,13.38
2023-02-24T23:30:55.940Z,13.75
2023-02-24T23:33:22.739Z,17.95
2023-02-24T23:35:49.824Z,22.70
2023-02-24T23:38:16.941Z,5.35
2023-02-24T23:40:50.045Z,12.70
2023-02-24T23:43:17.000Z,10.05
2023-02-24T23:45:44.394Z,17.17
2023-02-24T23:48:13.137Z,11.65
2023-02-24T23:50:41.179Z,9.13
2023-02-24T23:53:07.753Z,8.50
2023-02-24T23:55:35.579Z,18.52
2023-02-24T23:58:03.356Z,19.60
